Weather at Cheboygan County Airport

Public forecast

Using degrees Fahrenheit for public forecast. Weather courtesy of forecast.io.

Current aviation weather report (METAR) for Cheboygan County Airport

Retrieved 2021/10/23 05:15 UTC (0 seconds ago):

KSLH 230515Z AUTO 21003KT 10SM BKN050 OVC060 05/04 A2996 RMK AO2

Closest aviation forecast (TAF) to Cheboygan County Airport

Closest forecast is Pellston Regional Airport of Emmet County Airport, 12.7 nm (23.5 km) WSW. Retrieved 2021-10-23 00:22 UTC (5 hours ago):

TAF KPLN 222320Z 2300/2324 VRB03KT P6SM VCSH SCT025 BKN035 FM231500 30005KT P6SM VCSH BKN035